createdAt,value
2023-02-05T00:00:11.779Z,5.62
2023-02-05T00:03:15.886Z,5.34
2023-02-05T00:06:21.078Z,5.11
2023-02-05T00:09:24.988Z,5.00
2023-02-05T00:12:28.593Z,5.19
2023-02-05T00:15:32.909Z,5.17
2023-02-05T00:18:37.621Z,5.07
2023-02-05T00:21:42.849Z,4.97
2023-02-05T00:24:46.533Z,4.69
2023-02-05T00:27:50.402Z,5.03
2023-02-05T00:30:54.350Z,5.01
2023-02-05T00:33:58.517Z,5.21
2023-02-05T00:37:03.825Z,5.30
2023-02-05T00:40:08.678Z,5.01
2023-02-05T00:43:12.381Z,5.26
2023-02-05T00:46:16.393Z,5.14
2023-02-05T00:49:20.102Z,5.14
2023-02-05T00:52:25.312Z,4.63
2023-02-05T00:55:29.584Z,4.66
2023-02-05T00:58:33.381Z,4.67
2023-02-05T01:01:37.087Z,4.77
2023-02-05T01:04:40.749Z,4.56
2023-02-05T01:07:45.941Z,4.51
2023-02-05T01:10:52.536Z,4.41
2023-02-05T01:13:56.348Z,4.50
2023-02-05T01:17:00.150Z,4.45
2023-02-05T01:20:03.955Z,4.64
2023-02-05T01:23:09.890Z,4.64
2023-02-05T01:26:13.672Z,4.43
2023-02-05T01:29:19.483Z,4.45
2023-02-05T01:32:23.200Z,4.33
2023-02-05T01:35:26.862Z,4.43
2023-02-05T01:38:32.022Z,3.96
2023-02-05T01:41:36.084Z,4.20
2023-02-05T01:44:40.480Z,4.18
2023-02-05T01:47:44.337Z,3.95
2023-02-05T01:50:52.968Z,4.26
2023-02-05T01:53:58.464Z,4.21
2023-02-05T01:57:06.644Z,4.27
2023-02-05T02:00:12.322Z,4.16
2023-02-05T02:03:19.702Z,3.92
2023-02-05T02:06:23.513Z,4.09
2023-02-05T02:09:29.378Z,3.87
2023-02-05T02:12:36.746Z,3.76
2023-02-05T02:15:42.697Z,4.08
2023-02-05T02:18:47.537Z,4.11
2023-02-05T02:22:22.768Z,4.12
2023-02-05T02:25:53.980Z,4.04
2023-02-05T02:29:02.304Z,3.87
2023-02-05T02:32:14.892Z,3.99
2023-02-05T02:35:28.908Z,3.55
2023-02-05T02:38:37.491Z,3.52
2023-02-05T02:41:48.055Z,3.86
2023-02-05T02:45:01.787Z,3.84
2023-02-05T02:48:08.294Z,3.83
2023-02-05T02:51:13.994Z,3.53
2023-02-05T02:54:19.925Z,3.56
2023-02-05T02:57:29.490Z,3.43
2023-02-05T03:00:35.520Z,3.55
2023-02-05T03:03:43.852Z,3.55
2023-02-05T03:06:50.596Z,3.42
2023-02-05T03:10:00.664Z,3.17
2023-02-05T03:13:04.429Z,3.33
2023-02-05T03:16:10.310Z,3.22
2023-02-05T03:19:14.583Z,3.41
2023-02-05T03:22:18.308Z,3.36
2023-02-05T03:25:23.743Z,3.23
2023-02-05T03:28:31.308Z,3.20
2023-02-05T03:31:45.770Z,3.39
2023-02-05T03:34:59.274Z,3.13
2023-02-05T03:38:21.617Z,3.33
2023-02-05T03:41:48.900Z,2.90
2023-02-05T03:45:09.998Z,3.22
2023-02-05T03:48:42.988Z,2.75
2023-02-05T03:51:53.579Z,3.12
2023-02-05T03:55:05.131Z,2.74
2023-02-05T03:58:16.490Z,3.19
2023-02-05T04:01:20.492Z,3.05
2023-02-05T04:04:26.971Z,3.02
2023-02-05T04:07:32.508Z,2.73
2023-02-05T04:10:36.804Z,2.63
2023-02-05T04:13:40.717Z,2.57
2023-02-05T04:16:47.308Z,2.65
2023-02-05T04:19:52.553Z,2.51
2023-02-05T04:22:57.322Z,2.40
2023-02-05T04:26:02.377Z,2.00
2023-02-05T04:29:14.808Z,1.87
2023-02-05T04:32:22.651Z,2.33
2023-02-05T04:35:28.482Z,2.14
2023-02-05T04:38:32.365Z,2.41
2023-02-05T04:41:36.085Z,2.15
2023-02-05T04:44:39.761Z,2.10
2023-02-05T04:47:43.457Z,2.27
2023-02-05T04:50:48.948Z,1.81
2023-02-05T04:53:52.844Z,2.29
2023-02-05T04:56:56.575Z,2.32
2023-02-05T05:00:00.381Z,2.13
2023-02-05T05:03:04.162Z,2.34
2023-02-05T05:06:09.789Z,2.32
2023-02-05T05:09:13.340Z,2.44
2023-02-05T05:12:17.103Z,2.18
2023-02-05T05:15:20.945Z,2.28
2023-02-05T05:18:24.595Z,1.84
2023-02-05T05:21:29.816Z,2.15
2023-02-05T05:24:33.352Z,2.24
2023-02-05T05:27:37.090Z,2.21
2023-02-05T05:30:42.140Z,2.52
2023-02-05T05:33:45.925Z,2.31
2023-02-05T05:36:51.214Z,2.70
2023-02-05T05:40:12.331Z,2.60
2023-02-05T05:43:37.531Z,2.57
2023-02-05T05:46:41.312Z,2.73
2023-02-05T05:49:44.986Z,2.65
2023-02-05T05:52:50.161Z,2.93
2023-02-05T05:55:53.847Z,2.88
2023-02-05T05:58:57.590Z,2.73
2023-02-05T06:02:02.870Z,2.80
2023-02-05T06:05:06.909Z,2.68
2023-02-05T06:08:12.288Z,2.76
2023-02-05T06:11:16.230Z,2.27
2023-02-05T06:14:20.186Z,2.78
2023-02-05T06:17:24.048Z,2.30
2023-02-05T06:20:28.006Z,2.47
2023-02-05T06:23:33.442Z,2.57
2023-02-05T06:26:37.331Z,2.77
2023-02-05T06:29:41.193Z,2.54
2023-02-05T06:32:45.007Z,2.71
2023-02-05T06:35:48.893Z,2.62
2023-02-05T06:38:54.317Z,2.32
2023-02-05T06:41:58.158Z,2.70
2023-02-05T06:45:02.218Z,3.21
2023-02-05T06:48:06.248Z,3.06
2023-02-05T06:51:10.098Z,3.09
2023-02-05T06:54:15.490Z,2.63
2023-02-05T06:57:19.500Z,2.63
2023-02-05T07:00:23.572Z,2.71
2023-02-05T07:03:27.514Z,2.88
2023-02-05T07:06:31.356Z,2.60
2023-02-05T07:09:36.817Z,2.67
2023-02-05T07:12:40.691Z,3.15
2023-02-05T07:15:44.728Z,3.38
2023-02-05T07:18:48.826Z,3.86
2023-02-05T07:21:53.134Z,3.82
2023-02-05T07:24:58.455Z,3.07
2023-02-05T07:28:02.742Z,3.20
2023-02-05T07:31:07.648Z,2.72
2023-02-05T07:34:11.605Z,2.65
2023-02-05T07:37:16.165Z,2.79
2023-02-05T07:40:21.714Z,2.84
2023-02-05T07:43:25.771Z,2.86
2023-02-05T07:46:29.590Z,2.78
2023-02-05T07:49:33.500Z,3.18
2023-02-05T07:52:37.379Z,3.39
2023-02-05T07:55:42.827Z,4.14
2023-02-05T07:58:46.638Z,4.34
2023-02-05T08:01:50.600Z,3.80
2023-02-05T08:04:54.517Z,4.07
2023-02-05T08:07:58.359Z,4.41
2023-02-05T08:11:05.929Z,4.00
2023-02-05T08:14:09.747Z,4.21
2023-02-05T08:17:13.629Z,3.90
2023-02-05T08:20:17.714Z,3.51
2023-02-05T08:23:22.116Z,3.66
2023-02-05T08:26:27.497Z,4.01
2023-02-05T08:29:31.466Z,3.76
2023-02-05T08:32:35.581Z,4.06
2023-02-05T08:35:39.531Z,3.74
2023-02-05T08:38:43.423Z,3.74
2023-02-05T08:41:48.768Z,3.48
2023-02-05T08:44:52.862Z,3.56
2023-02-05T08:47:56.837Z,4.14
2023-02-05T08:51:00.718Z,4.37
2023-02-05T08:54:05.990Z,4.00
2023-02-05T08:57:12.497Z,4.08
2023-02-05T09:00:17.326Z,4.10
2023-02-05T09:03:21.278Z,3.73
2023-02-05T09:06:25.207Z,3.09
2023-02-05T09:09:30.788Z,3.44
2023-02-05T09:12:36.159Z,3.90
2023-02-05T09:15:43.869Z,4.11
2023-02-05T09:18:47.737Z,4.12
2023-02-05T09:21:53.959Z,4.47
2023-02-05T09:24:58.161Z,4.06
2023-02-05T09:28:03.479Z,4.37
2023-02-05T09:31:09.366Z,4.30
2023-02-05T09:34:13.682Z,5.60
2023-02-05T09:37:18.193Z,5.43
2023-02-05T09:40:27.422Z,4.94
2023-02-05T09:43:44.297Z,5.53
2023-02-05T09:46:56.937Z,6.22
2023-02-05T09:50:07.195Z,6.81
2023-02-05T09:53:17.197Z,6.17
2023-02-05T09:56:21.644Z,6.73
2023-02-05T09:59:29.110Z,6.67
2023-02-05T10:02:41.500Z,5.70
2023-02-05T10:05:56.610Z,5.89
2023-02-05T10:09:09.755Z,6.22
2023-02-05T10:12:25.791Z,5.01
2023-02-05T10:15:42.870Z,5.20
2023-02-05T10:19:00.718Z,4.84
2023-02-05T10:22:15.428Z,4.53
2023-02-05T10:25:45.737Z,4.47
2023-02-05T10:29:12.601Z,4.81
2023-02-05T10:32:23.878Z,4.33
2023-02-05T10:35:36.668Z,4.37
2023-02-05T10:38:45.415Z,4.16
2023-02-05T10:41:55.192Z,4.68
2023-02-05T10:45:08.122Z,4.76
2023-02-05T10:48:27.850Z,5.18
2023-02-05T10:51:37.130Z,4.97
2023-02-05T10:54:42.220Z,4.51
2023-02-05T10:57:46.022Z,4.51
2023-02-05T11:00:50.011Z,4.19
2023-02-05T11:04:00.890Z,3.91
2023-02-05T11:07:06.650Z,4.28
2023-02-05T11:10:19.662Z,4.68
2023-02-05T11:13:24.180Z,4.67
2023-02-05T11:16:40.034Z,4.30
2023-02-05T11:19:54.486Z,4.30
2023-02-05T11:23:10.520Z,4.44
2023-02-05T11:26:20.394Z,4.97
2023-02-05T11:29:26.060Z,4.52
2023-02-05T11:32:38.410Z,4.20
2023-02-05T11:35:53.658Z,4.62
2023-02-05T11:38:59.317Z,4.60
2023-02-05T11:42:11.761Z,4.66
2023-02-05T11:45:20.418Z,4.97
2023-02-05T11:48:33.594Z,5.57
2023-02-05T11:51:45.964Z,5.40
2023-02-05T11:54:50.390Z,5.71
2023-02-05T11:58:01.001Z,5.50
2023-02-05T12:01:07.487Z,5.51
2023-02-05T12:04:19.755Z,5.34
2023-02-05T12:07:28.212Z,5.05
2023-02-05T12:10:39.530Z,5.29
2023-02-05T12:13:56.397Z,5.38
2023-02-05T12:17:09.543Z,5.43
2023-02-05T12:20:23.327Z,5.82
2023-02-05T12:23:47.161Z,5.63
2023-02-05T12:26:58.163Z,5.93
2023-02-05T12:30:14.240Z,6.30
2023-02-05T12:33:45.376Z,6.18
2023-02-05T12:37:18.440Z,6.06
2023-02-05T12:40:40.099Z,5.82
2023-02-05T12:43:48.121Z,5.58
2023-02-05T12:47:01.029Z,5.56
2023-02-05T12:50:32.468Z,5.47
2023-02-05T12:53:56.908Z,5.48
2023-02-05T12:57:06.981Z,5.49
2023-02-05T13:00:17.357Z,5.51
2023-02-05T13:03:30.169Z,5.56
2023-02-05T13:06:39.260Z,4.51
2023-02-05T13:09:49.201Z,4.93
2023-02-05T13:12:59.992Z,4.90
2023-02-05T13:16:08.409Z,4.58
2023-02-05T13:19:25.442Z,4.42
2023-02-05T13:22:51.062Z,4.63
2023-02-05T13:26:14.062Z,4.73
2023-02-05T13:29:23.984Z,4.77
2023-02-05T13:32:32.823Z,4.97
2023-02-05T13:35:44.484Z,4.73
2023-02-05T13:39:04.192Z,4.57
2023-02-05T13:42:27.313Z,4.25
2023-02-05T13:46:00.375Z,4.63
2023-02-05T13:49:43.348Z,4.46
2023-02-05T13:53:18.425Z,4.58
2023-02-05T13:56:46.501Z,4.47
2023-02-05T13:59:54.105Z,4.52
2023-02-05T14:03:05.890Z,4.75
2023-02-05T14:06:24.640Z,4.78
2023-02-05T14:09:36.395Z,4.89
2023-02-05T14:12:40.599Z,4.79
2023-02-05T14:15:45.792Z,4.61
2023-02-05T14:19:05.243Z,4.83
2023-02-05T14:22:14.242Z,5.01
2023-02-05T14:26:06.409Z,4.55
2023-02-05T14:29:41.793Z,4.29
2023-02-05T14:33:00.030Z,3.92
2023-02-05T14:36:33.398Z,4.52
2023-02-05T14:39:38.672Z,4.52
2023-02-05T14:42:44.438Z,4.91
2023-02-05T14:45:51.223Z,4.44
2023-02-05T14:48:58.417Z,4.39
2023-02-05T14:52:08.063Z,4.20
2023-02-05T14:55:21.462Z,4.35
2023-02-05T14:58:28.526Z,4.15
2023-02-05T15:01:50.418Z,4.72
2023-02-05T15:04:56.115Z,4.11
2023-02-05T15:08:11.512Z,4.00
2023-02-05T15:11:22.327Z,4.00
2023-02-05T15:14:52.837Z,4.13
2023-02-05T15:17:59.636Z,4.40
2023-02-05T15:21:04.321Z,4.06
2023-02-05T15:24:16.450Z,4.23
2023-02-05T15:27:24.787Z,4.51
2023-02-05T15:30:33.778Z,4.54
2023-02-05T15:33:45.826Z,4.45
2023-02-05T15:36:56.130Z,4.28
2023-02-05T15:40:04.685Z,4.48
2023-02-05T15:43:17.817Z,4.32
2023-02-05T15:46:22.402Z,4.33
2023-02-05T15:49:32.994Z,4.07
2023-02-05T15:52:36.975Z,3.86
2023-02-05T15:55:42.264Z,4.14
2023-02-05T15:58:50.701Z,4.13
2023-02-05T16:02:04.138Z,3.89
2023-02-05T16:05:20.355Z,4.12
2023-02-05T16:08:28.300Z,3.92
2023-02-05T16:11:37.432Z,4.02
2023-02-05T16:14:41.265Z,4.01
2023-02-05T16:17:49.632Z,3.69
2023-02-05T16:20:59.765Z,3.97
2023-02-05T16:24:07.866Z,3.81
2023-02-05T16:27:17.536Z,3.53
2023-02-05T16:30:28.601Z,3.84
2023-02-05T16:33:38.019Z,3.58
2023-02-05T16:36:46.009Z,4.06
2023-02-05T16:39:54.882Z,3.65
2023-02-05T16:43:00.435Z,3.30
2023-02-05T16:46:29.077Z,3.21
2023-02-05T16:49:33.496Z,3.82
2023-02-05T16:52:38.376Z,3.76
2023-02-05T16:55:44.655Z,3.53
2023-02-05T16:58:53.045Z,3.70
2023-02-05T17:01:57.404Z,3.86
2023-02-05T17:05:02.462Z,3.77
2023-02-05T17:08:08.678Z,3.80
2023-02-05T17:11:36.294Z,3.42
2023-02-05T17:14:41.533Z,3.30
2023-02-05T17:17:50.008Z,3.23
2023-02-05T17:21:14.293Z,3.22
2023-02-05T17:24:19.237Z,3.13
2023-02-05T17:27:29.784Z,2.89
2023-02-05T17:30:36.247Z,3.24
2023-02-05T17:33:40.804Z,3.23
2023-02-05T17:36:44.718Z,3.02
2023-02-05T17:39:50.014Z,3.09
2023-02-05T17:42:53.843Z,2.90
2023-02-05T17:45:59.297Z,2.88
2023-02-05T17:49:03.224Z,3.10
2023-02-05T17:52:07.503Z,3.11
2023-02-05T17:55:15.064Z,3.08
2023-02-05T17:58:18.794Z,2.66
2023-02-05T18:01:24.150Z,2.92
2023-02-05T18:04:27.985Z,3.02
2023-02-05T18:07:35.230Z,2.89
2023-02-05T18:10:39.116Z,3.01
2023-02-05T18:13:43.003Z,2.92
2023-02-05T18:16:48.372Z,2.78
2023-02-05T18:19:52.337Z,2.83
2023-02-05T18:22:56.263Z,2.33
2023-02-05T18:26:00.492Z,2.71
2023-02-05T18:29:04.317Z,2.72
2023-02-05T18:32:10.016Z,2.72
2023-02-05T18:35:15.238Z,2.34
2023-02-05T18:38:19.232Z,2.28
2023-02-05T18:41:23.105Z,2.06
2023-02-05T18:44:27.822Z,2.24
2023-02-05T18:47:33.164Z,2.31
2023-02-05T18:50:37.270Z,2.45
2023-02-05T18:53:44.744Z,2.34
2023-02-05T18:56:49.073Z,2.44
2023-02-05T18:59:54.039Z,2.21
2023-02-05T19:02:59.392Z,2.06
2023-02-05T19:06:05.765Z,2.15
2023-02-05T19:09:09.774Z,2.14
2023-02-05T19:12:13.548Z,1.79
2023-02-05T19:15:17.604Z,1.87
2023-02-05T19:18:22.950Z,1.89
2023-02-05T19:21:29.597Z,2.14
2023-02-05T19:24:33.887Z,2.19
2023-02-05T19:27:37.646Z,2.26
2023-02-05T19:30:41.688Z,1.87
2023-02-05T19:33:47.161Z,2.23
2023-02-05T19:36:51.096Z,2.08
2023-02-05T19:39:55.020Z,1.98
2023-02-05T19:42:58.929Z,2.25
2023-02-05T19:46:04.222Z,2.21
2023-02-05T19:49:14.061Z,2.28
2023-02-05T19:52:18.296Z,2.55
2023-02-05T19:55:22.272Z,2.00
2023-02-05T19:58:26.073Z,2.06
2023-02-05T20:01:32.179Z,2.40
2023-02-05T20:04:37.542Z,2.40
2023-02-05T20:07:41.365Z,2.54
2023-02-05T20:10:45.201Z,1.68
2023-02-05T20:13:49.400Z,1.94
2023-02-05T20:16:53.786Z,2.46
2023-02-05T20:20:10.335Z,2.57
2023-02-05T20:23:17.939Z,2.39
2023-02-05T20:26:22.750Z,2.54
2023-02-05T20:29:43.808Z,2.37
2023-02-05T20:32:47.827Z,2.36
2023-02-05T20:35:53.378Z,2.30
2023-02-05T20:38:58.086Z,2.26
2023-02-05T20:42:02.886Z,1.89
2023-02-05T20:45:07.366Z,2.26
2023-02-05T20:48:11.157Z,2.48
2023-02-05T20:51:17.821Z,2.68
2023-02-05T20:54:21.907Z,2.78
2023-02-05T20:57:25.872Z,2.73
2023-02-05T21:00:29.742Z,2.85
2023-02-05T21:03:33.669Z,2.81
2023-02-05T21:06:40.630Z,2.83
2023-02-05T21:09:44.556Z,2.64
2023-02-05T21:12:48.398Z,2.92
2023-02-05T21:15:56.714Z,2.43
2023-02-05T21:19:00.579Z,2.38
2023-02-05T21:22:05.937Z,2.37
2023-02-05T21:25:10.218Z,2.45
2023-02-05T21:28:14.780Z,2.61
2023-02-05T21:31:18.666Z,2.38
2023-02-05T21:34:24.429Z,2.35
2023-02-05T21:37:29.860Z,2.56
2023-02-05T21:40:33.875Z,2.71
2023-02-05T21:43:38.247Z,2.85
2023-02-05T21:46:42.393Z,2.74
2023-02-05T21:49:46.357Z,2.73
2023-02-05T21:52:52.032Z,2.80
2023-02-05T21:55:56.059Z,2.53
2023-02-05T21:59:00.021Z,2.70
2023-02-05T22:02:03.961Z,2.80
2023-02-05T22:05:08.941Z,2.74
2023-02-05T22:08:14.239Z,2.52
2023-02-05T22:11:19.997Z,2.57
2023-02-05T22:14:24.425Z,2.58
2023-02-05T22:17:28.601Z,2.37
2023-02-05T22:20:32.408Z,2.46
2023-02-05T22:23:37.734Z,2.10
2023-02-05T22:26:41.797Z,2.31
2023-02-05T22:29:45.677Z,2.19
2023-02-05T22:32:49.443Z,2.50
2023-02-05T22:35:53.654Z,2.53
2023-02-05T22:38:59.620Z,2.37
2023-02-05T22:42:04.634Z,2.41
2023-02-05T22:45:09.256Z,2.62
2023-02-05T22:48:13.232Z,2.64
2023-02-05T22:51:19.603Z,2.53
2023-02-05T22:54:24.872Z,2.61
2023-02-05T22:57:28.692Z,2.25
2023-02-05T23:00:33.702Z,2.48
2023-02-05T23:03:37.833Z,2.69
2023-02-05T23:06:43.758Z,2.63
2023-02-05T23:09:49.137Z,2.68
2023-02-05T23:12:53.178Z,2.63
2023-02-05T23:15:57.037Z,2.18
2023-02-05T23:19:02.993Z,2.62
2023-02-05T23:22:09.960Z,2.49
2023-02-05T23:25:15.326Z,2.80
2023-02-05T23:28:19.992Z,2.49
2023-02-05T23:31:24.514Z,2.29
2023-02-05T23:34:30.009Z,2.23
2023-02-05T23:37:35.129Z,2.13
2023-02-05T23:40:40.428Z,2.34
2023-02-05T23:43:44.368Z,2.53
2023-02-05T23:46:49.741Z,2.76
2023-02-05T23:49:53.695Z,2.73
2023-02-05T23:52:57.685Z,2.73
2023-02-05T23:56:03.742Z,2.67
2023-02-05T23:59:09.093Z,2.17
